Main page
METAR-TAF:

METAR-TAF

Airports :

Amman, Jordan

Amman Civil Airport

latitude: 31-59N, longitude: 035-59E, elevation: 767 m

Current weather observation

The report was made 27 minutes ago, at 07:00 UTC
Wind 12 kt from the West
Temperature 22°C
Humidity 19%
Pressure 1014 hPa
Visibility: 6000 m

METAR: OJAM 260700Z 27012KT 6000 NSC 22/M03 Q1014 NOSIG

Time: 10:27 (07:27 UTC)

Forecast

The report was made 2 hours and 27 minutes ago, at 05:00 UTC
Forecast valid from 26 at 06 UTC to 27 at 12 UTC
Wind 5 kt from the West
Visibility: 5000 m
haze
Temporary
from 26 at 10 UTC to 26 at 15 UTC
Wind 15 kt from the West/Northwest
Visibility: 4000 m
Blowing dust

TAF: OJAM 260500Z 2606/2712 28005KT 5000 HZ NSC TEMPO 2610/2615 30015KT 4000 BLDU

Weather observations and forecasts of more than 4000 airports (METAR and TAF reports).

The available stations are represented by yellow and red dots on the map.

Hover mouse over dot to see the name of the station.

Then click to see weather observations and forecasts.

To change the map : click on the green buttons with a black cross to zoom in, on the green button with a dash to zoom out, or on the green arrows for adjacent maps.


METAR-TAF: